OIKK

Details ICAO OIKK (KER)
Name KERMAN
Region Iran
Timezone Asia/Tehran (UTC+3.5)
Plans Departing 18
Arriving 22
Stats Elevation 5,741 ft / 1,750 m (AMSL)
Location 30.268055° 56.955332°
Runways 2
Magnetic Variation 2.914° E
Sunrise 2017-12-12 03:00:32 UTC / 2017-12-12 06:30:32 Local
Sunset 2017-12-12 13:14:00 UTC / 2017-12-12 16:44:00 Local
Advertisement - Login to hide

Runways

ID Width Length Bearing (true) Bearing (mag) Surface Threshold Offset Overrun Length
05 148 ft / 45 m 6,658 ft / 2,029 m 53.18° 50.27° Asphalt 0 ft / 0 m 0 ft / 0 m
16 148 ft / 45 m 12,653 ft / 3,857 m 158.43° 155.52° Asphalt 0 ft / 0 m 344 ft / 105 m
23 148 ft / 45 m 6,658 ft / 2,029 m 233.19° 230.28° Asphalt 0 ft / 0 m 0 ft / 0 m
34 148 ft / 45 m 12,653 ft / 3,857 m 338.44° 335.53° Asphalt 0 ft / 0 m 488 ft / 149 m

Map

Weather


0- 5 10 15 20 25 30 35+ Temperature / ° C

Clouds and Precipitation
Forecast for 2017-12-12 06:00 UTC. Updated 8 minutes ago

Ground ~20,000 ft ~40,000 ft Winds

METAR

OIKK 120250Z 12006KT CAVOK M05/M26 Q1023 A3023

TAF

TAF OIKK 112300Z 1200/1306 33004MPS 8000 NSC TEMPO 1209/1215 33009MPS

Frequencies

Recorded 127.25 MHz ATIS
Tower 122.50 MHz TWR
Tower 121.90 MHz TWR
Warning: Do not use this data for real-world aviation or navigation. No guarantee of current accuracy is given.